sensor_id;sensor_type;location;lat;lon;timestamp;P1;durP1;ratioP1;P2;durP2;ratioP2
54406;SDS011;40313;50.308;30.374;2023-03-17T00:02:40;1.70;;;1.40;;
54406;SDS011;40313;50.308;30.374;2023-03-17T00:07:48;1.50;;;1.40;;
54406;SDS011;40313;50.308;30.374;2023-03-17T00:10:17;2.50;;;1.90;;
54406;SDS011;40313;50.308;30.374;2023-03-17T00:12:47;2.00;;;1.45;;
54406;SDS011;40313;50.308;30.374;2023-03-17T00:15:15;3.90;;;0.75;;
54406;SDS011;40313;50.308;30.374;2023-03-17T00:17:44;1.70;;;0.90;;
54406;SDS011;40313;50.308;30.374;2023-03-17T00:20:15;1.10;;;0.40;;
54406;SDS011;40313;50.308;30.374;2023-03-17T00:27:44;2.20;;;1.80;;
54406;SDS011;40313;50.308;30.374;2023-03-17T00:30:14;2.20;;;1.30;;
54406;SDS011;40313;50.308;30.374;2023-03-17T00:35:14;2.15;;;0.75;;
54406;SDS011;40313;50.308;30.374;2023-03-17T00:37:41;4.05;;;0.70;;
54406;SDS011;40313;50.308;30.374;2023-03-17T00:40:08;2.35;;;1.65;;
54406;SDS011;40313;50.308;30.374;2023-03-17T00:45:06;2.20;;;1.20;;
54406;SDS011;40313;50.308;30.374;2023-03-17T00:54:55;2.20;;;0.90;;
54406;SDS011;40313;50.308;30.374;2023-03-17T00:59:48;1.40;;;1.20;;
54406;SDS011;40313;50.308;30.374;2023-03-17T01:02:15;1.80;;;1.20;;
54406;SDS011;40313;50.308;30.374;2023-03-17T01:07:10;4.20;;;1.25;;
54406;SDS011;40313;50.308;30.374;2023-03-17T01:09:38;3.00;;;1.45;;
54406;SDS011;40313;50.308;30.374;2023-03-17T01:12:07;6.25;;;2.30;;
54406;SDS011;40313;50.308;30.374;2023-03-17T01:17:05;0.90;;;0.80;;
54406;SDS011;40313;50.308;30.374;2023-03-17T01:24:30;2.60;;;0.90;;
54406;SDS011;40313;50.308;30.374;2023-03-17T01:31:51;2.40;;;1.50;;
54406;SDS011;40313;50.308;30.374;2023-03-17T01:39:12;1.40;;;1.10;;
54406;SDS011;40313;50.308;30.374;2023-03-17T01:46:32;1.90;;;0.90;;
54406;SDS011;40313;50.308;30.374;2023-03-17T01:49:01;1.10;;;1.00;;
54406;SDS011;40313;50.308;30.374;2023-03-17T01:54:04;2.55;;;1.70;;
54406;SDS011;40313;50.308;30.374;2023-03-17T01:56:36;1.30;;;1.20;;
54406;SDS011;40313;50.308;30.374;2023-03-17T01:59:06;5.10;;;2.45;;
54406;SDS011;40313;50.308;30.374;2023-03-17T02:04:04;4.50;;;1.90;;
54406;SDS011;40313;50.308;30.374;2023-03-17T02:06:31;1.50;;;0.90;;
54406;SDS011;40313;50.308;30.374;2023-03-17T02:08:58;6.80;;;1.10;;
54406;SDS011;40313;50.308;30.374;2023-03-17T02:13:53;1.40;;;1.00;;
54406;SDS011;40313;50.308;30.374;2023-03-17T02:21:37;4.40;;;1.40;;
54406;SDS011;40313;50.308;30.374;2023-03-17T02:24:07;2.45;;;0.95;;
54406;SDS011;40313;50.308;30.374;2023-03-17T02:26:37;1.35;;;0.70;;
54406;SDS011;40313;50.308;30.374;2023-03-17T02:29:04;5.75;;;0.50;;
54406;SDS011;40313;50.308;30.374;2023-03-17T02:31:30;2.25;;;0.70;;
54406;SDS011;40313;50.308;30.374;2023-03-17T02:33:58;1.23;;;1.13;;
54406;SDS011;40313;50.308;30.374;2023-03-17T02:36:25;1.10;;;0.80;;
54406;SDS011;40313;50.308;30.374;2023-03-17T02:38:53;2.00;;;0.80;;
54406;SDS011;40313;50.308;30.374;2023-03-17T02:41:19;3.45;;;0.82;;
54406;SDS011;40313;50.308;30.374;2023-03-17T02:43:46;0.60;;;0.40;;
54406;SDS011;40313;50.308;30.374;2023-03-17T02:46:12;1.93;;;0.80;;
54406;SDS011;40313;50.308;30.374;2023-03-17T02:48:39;1.88;;;1.05;;
54406;SDS011;40313;50.308;30.374;2023-03-17T02:51:06;0.98;;;0.60;;
54406;SDS011;40313;50.308;30.374;2023-03-17T02:53:33;3.17;;;1.03;;
54406;SDS011;40313;50.308;30.374;2023-03-17T02:56:02;1.17;;;0.77;;
54406;SDS011;40313;50.308;30.374;2023-03-17T02:58:30;1.55;;;0.90;;
54406;SDS011;40313;50.308;30.374;2023-03-17T03:00:57;0.98;;;0.60;;
54406;SDS011;40313;50.308;30.374;2023-03-17T03:03:23;1.30;;;1.05;;
54406;SDS011;40313;50.308;30.374;2023-03-17T03:05:50;3.22;;;0.77;;
54406;SDS011;40313;50.308;30.374;2023-03-17T03:08:17;1.85;;;0.55;;
54406;SDS011;40313;50.308;30.374;2023-03-17T03:10:43;2.50;;;1.02;;
54406;SDS011;40313;50.308;30.374;2023-03-17T03:13:12;2.38;;;0.80;;
54406;SDS011;40313;50.308;30.374;2023-03-17T03:15:39;1.70;;;0.85;;
54406;SDS011;40313;50.308;30.374;2023-03-17T03:18:06;1.95;;;0.50;;
54406;SDS011;40313;50.308;30.374;2023-03-17T03:20:33;0.60;;;0.50;;
54406;SDS011;40313;50.308;30.374;2023-03-17T03:23:00;0.80;;;0.50;;
54406;SDS011;40313;50.308;30.374;2023-03-17T03:25:27;4.97;;;1.20;;
54406;SDS011;40313;50.308;30.374;2023-03-17T03:27:54;2.63;;;0.47;;
54406;SDS011;40313;50.308;30.374;2023-03-17T03:30:22;2.47;;;1.30;;
54406;SDS011;40313;50.308;30.374;2023-03-17T03:32:48;1.15;;;0.70;;
54406;SDS011;40313;50.308;30.374;2023-03-17T03:35:15;1.02;;;0.98;;
54406;SDS011;40313;50.308;30.374;2023-03-17T03:37:42;1.00;;;0.65;;
54406;SDS011;40313;50.308;30.374;2023-03-17T03:40:09;1.10;;;0.60;;
54406;SDS011;40313;50.308;30.374;2023-03-17T03:42:36;11.27;;;0.85;;
54406;SDS011;40313;50.308;30.374;2023-03-17T03:45:03;3.30;;;0.90;;
54406;SDS011;40313;50.308;30.374;2023-03-17T03:47:31;0.60;;;0.40;;
54406;SDS011;40313;50.308;30.374;2023-03-17T03:49:58;2.15;;;0.95;;
54406;SDS011;40313;50.308;30.374;2023-03-17T03:52:24;1.20;;;0.80;;
54406;SDS011;40313;50.308;30.374;2023-03-17T03:54:51;3.47;;;1.67;;
54406;SDS011;40313;50.308;30.374;2023-03-17T03:57:17;2.80;;;1.70;;
54406;SDS011;40313;50.308;30.374;2023-03-17T04:02:10;1.17;;;1.07;;
54406;SDS011;40313;50.308;30.374;2023-03-17T04:04:38;8.50;;;0.70;;
54406;SDS011;40313;50.308;30.374;2023-03-17T04:07:06;1.40;;;1.20;;
54406;SDS011;40313;50.308;30.374;2023-03-17T04:09:33;1.10;;;1.00;;
54406;SDS011;40313;50.308;30.374;2023-03-17T04:12:00;6.95;;;1.00;;
54406;SDS011;40313;50.308;30.374;2023-03-17T04:14:27;4.60;;;0.98;;
54406;SDS011;40313;50.308;30.374;2023-03-17T04:16:54;10.70;;;1.30;;
54406;SDS011;40313;50.308;30.374;2023-03-17T04:19:20;3.80;;;1.00;;
54406;SDS011;40313;50.308;30.374;2023-03-17T04:21:49;8.63;;;1.07;;
54406;SDS011;40313;50.308;30.374;2023-03-17T04:24:15;0.70;;;0.60;;
54406;SDS011;40313;50.308;30.374;2023-03-17T04:26:42;2.13;;;2.00;;
54406;SDS011;40313;50.308;30.374;2023-03-17T04:29:09;1.30;;;1.10;;
54406;SDS011;40313;50.308;30.374;2023-03-17T04:31:39;1.15;;;1.05;;
54406;SDS011;40313;50.308;30.374;2023-03-17T04:34:06;1.98;;;1.17;;
54406;SDS011;40313;50.308;30.374;2023-03-17T04:36:35;3.55;;;1.40;;
54406;SDS011;40313;50.308;30.374;2023-03-17T04:39:03;4.00;;;1.85;;
54406;SDS011;40313;50.308;30.374;2023-03-17T04:41:29;3.85;;;1.40;;
54406;SDS011;40313;50.308;30.374;2023-03-17T04:43:56;4.68;;;0.95;;
54406;SDS011;40313;50.308;30.374;2023-03-17T04:46:22;2.05;;;1.85;;
54406;SDS011;40313;50.308;30.374;2023-03-17T04:48:49;1.40;;;1.00;;
54406;SDS011;40313;50.308;30.374;2023-03-17T04:51:16;1.30;;;0.82;;
54406;SDS011;40313;50.308;30.374;2023-03-17T04:53:43;0.98;;;0.75;;
54406;SDS011;40313;50.308;30.374;2023-03-17T04:56:11;2.65;;;1.17;;
54406;SDS011;40313;50.308;30.374;2023-03-17T04:58:37;3.67;;;0.93;;
54406;SDS011;40313;50.308;30.374;2023-03-17T05:01:04;6.43;;;2.03;;
54406;SDS011;40313;50.308;30.374;2023-03-17T05:03:32;10.93;;;2.45;;
54406;SDS011;40313;50.308;30.374;2023-03-17T05:05:59;2.00;;;1.90;;
54406;SDS011;40313;50.308;30.374;2023-03-17T05:08:27;6.72;;;2.13;;
54406;SDS011;40313;50.308;30.374;2023-03-17T05:10:53;1.88;;;1.70;;
54406;SDS011;40313;50.308;30.374;2023-03-17T05:13:22;3.88;;;2.15;;
54406;SDS011;40313;50.308;30.374;2023-03-17T05:15:48;3.00;;;1.90;;
54406;SDS011;40313;50.308;30.374;2023-03-17T05:18:16;2.93;;;1.37;;
54406;SDS011;40313;50.308;30.374;2023-03-17T05:20:44;3.43;;;1.47;;
54406;SDS011;40313;50.308;30.374;2023-03-17T05:23:11;2.05;;;1.23;;
54406;SDS011;40313;50.308;30.374;2023-03-17T05:25:37;2.05;;;0.75;;
54406;SDS011;40313;50.308;30.374;2023-03-17T05:28:05;1.13;;;1.00;;
54406;SDS011;40313;50.308;30.374;2023-03-17T05:30:35;1.13;;;1.03;;
54406;SDS011;40313;50.308;30.374;2023-03-17T05:33:02;4.33;;;1.03;;
54406;SDS011;40313;50.308;30.374;2023-03-17T05:35:28;4.20;;;3.10;;
54406;SDS011;40313;50.308;30.374;2023-03-17T05:37:55;10.07;;;1.75;;
54406;SDS011;40313;50.308;30.374;2023-03-17T05:40:21;1.15;;;1.00;;
54406;SDS011;40313;50.308;30.374;2023-03-17T05:42:49;1.92;;;1.70;;
54406;SDS011;40313;50.308;30.374;2023-03-17T05:45:16;2.33;;;1.73;;
54406;SDS011;40313;50.308;30.374;2023-03-17T05:47:44;1.23;;;0.90;;
54406;SDS011;40313;50.308;30.374;2023-03-17T05:50:11;1.90;;;1.80;;
54406;SDS011;40313;50.308;30.374;2023-03-17T05:52:38;2.90;;;2.10;;
54406;SDS011;40313;50.308;30.374;2023-03-17T05:55:05;1.55;;;1.30;;
54406;SDS011;40313;50.308;30.374;2023-03-17T05:57:32;2.15;;;2.05;;
54406;SDS011;40313;50.308;30.374;2023-03-17T05:59:59;1.80;;;1.63;;
54406;SDS011;40313;50.308;30.374;2023-03-17T06:02:26;2.83;;;2.60;;
54406;SDS011;40313;50.308;30.374;2023-03-17T06:04:54;9.40;;;2.90;;
54406;SDS011;40313;50.308;30.374;2023-03-17T06:07:20;1.88;;;1.73;;
54406;SDS011;40313;50.308;30.374;2023-03-17T06:09:47;2.55;;;2.35;;
54406;SDS011;40313;50.308;30.374;2023-03-17T06:12:13;1.85;;;1.75;;
54406;SDS011;40313;50.308;30.374;2023-03-17T06:14:40;1.55;;;1.45;;
54406;SDS011;40313;50.308;30.374;2023-03-17T06:17:07;10.05;;;2.40;;
54406;SDS011;40313;50.308;30.374;2023-03-17T06:22:01;8.25;;;2.30;;
54406;SDS011;40313;50.308;30.374;2023-03-17T06:24:28;7.18;;;2.70;;
54406;SDS011;40313;50.308;30.374;2023-03-17T06:26:55;2.13;;;1.38;;
54406;SDS011;40313;50.308;30.374;2023-03-17T06:29:21;5.28;;;3.28;;
54406;SDS011;40313;50.308;30.374;2023-03-17T06:31:48;6.00;;;1.60;;
54406;SDS011;40313;50.308;30.374;2023-03-17T06:34:15;2.83;;;2.55;;
54406;SDS011;40313;50.308;30.374;2023-03-17T06:36:42;2.23;;;2.03;;
54406;SDS011;40313;50.308;30.374;2023-03-17T06:39:10;4.13;;;2.63;;
54406;SDS011;40313;50.308;30.374;2023-03-17T06:41:38;3.80;;;1.73;;
54406;SDS011;40313;50.308;30.374;2023-03-17T06:44:05;4.13;;;2.50;;
54406;SDS011;40313;50.308;30.374;2023-03-17T06:46:32;3.30;;;2.40;;
54406;SDS011;40313;50.308;30.374;2023-03-17T06:51:25;8.43;;;2.70;;
54406;SDS011;40313;50.308;30.374;2023-03-17T06:53:52;2.35;;;1.65;;
54406;SDS011;40313;50.308;30.374;2023-03-17T06:56:20;2.80;;;2.60;;
54406;SDS011;40313;50.308;30.374;2023-03-17T06:58:47;3.10;;;2.90;;
54406;SDS011;40313;50.308;30.374;2023-03-17T07:01:15;1.50;;;1.40;;
54406;SDS011;40313;50.308;30.374;2023-03-17T07:03:41;2.50;;;2.40;;
54406;SDS011;40313;50.308;30.374;2023-03-17T07:06:09;5.72;;;2.53;;
54406;SDS011;40313;50.308;30.374;2023-03-17T07:08:36;1.63;;;1.53;;
54406;SDS011;40313;50.308;30.374;2023-03-17T07:11:03;3.37;;;1.93;;
54406;SDS011;40313;50.308;30.374;2023-03-17T07:13:31;7.17;;;3.80;;
54406;SDS011;40313;50.308;30.374;2023-03-17T07:15:59;6.53;;;4.30;;
54406;SDS011;40313;50.308;30.374;2023-03-17T07:18:26;3.08;;;2.80;;
54406;SDS011;40313;50.308;30.374;2023-03-17T07:20:53;3.45;;;3.25;;
54406;SDS011;40313;50.308;30.374;2023-03-17T07:23:21;7.90;;;4.20;;
54406;SDS011;40313;50.308;30.374;2023-03-17T07:25:47;4.40;;;2.65;;
54406;SDS011;40313;50.308;30.374;2023-03-17T07:28:14;2.73;;;2.53;;
54406;SDS011;40313;50.308;30.374;2023-03-17T07:30:42;3.10;;;1.80;;
54406;SDS011;40313;50.308;30.374;2023-03-17T07:33:10;7.93;;;4.13;;
54406;SDS011;40313;50.308;30.374;2023-03-17T07:35:37;4.70;;;3.07;;
54406;SDS011;40313;50.308;30.374;2023-03-17T07:38:04;4.45;;;4.05;;
54406;SDS011;40313;50.308;30.374;2023-03-17T08:38:51;3.20;;;2.90;;
54406;SDS011;40313;50.308;30.374;2023-03-17T08:41:19;3.70;;;3.30;;
54406;SDS011;40313;50.308;30.374;2023-03-17T08:43:47;1.97;;;1.87;;
54406;SDS011;40313;50.308;30.374;2023-03-17T08:46:16;2.85;;;2.30;;
54406;SDS011;40313;50.308;30.374;2023-03-17T08:48:45;1.67;;;1.57;;
54406;SDS011;40313;50.308;30.374;2023-03-17T08:51:14;2.50;;;2.30;;
54406;SDS011;40313;50.308;30.374;2023-03-17T08:53:41;2.10;;;1.10;;
54406;SDS011;40313;50.308;30.374;2023-03-17T08:56:10;1.80;;;1.40;;
54406;SDS011;40313;50.308;30.374;2023-03-17T08:58:38;1.50;;;1.40;;
54406;SDS011;40313;50.308;30.374;2023-03-17T09:01:06;2.50;;;2.10;;
54406;SDS011;40313;50.308;30.374;2023-03-17T09:03:34;4.90;;;2.10;;
54406;SDS011;40313;50.308;30.374;2023-03-17T09:06:02;5.00;;;1.67;;
54406;SDS011;40313;50.308;30.374;2023-03-17T09:08:30;1.05;;;1.00;;
54406;SDS011;40313;50.308;30.374;2023-03-17T09:10:58;3.17;;;1.80;;
54406;SDS011;40313;50.308;30.374;2023-03-17T09:13:26;1.63;;;1.53;;
54406;SDS011;40313;50.308;30.374;2023-03-17T09:15:53;1.90;;;1.33;;
54406;SDS011;40313;50.308;30.374;2023-03-17T09:18:20;1.75;;;1.30;;
54406;SDS011;40313;50.308;30.374;2023-03-17T09:20:47;1.80;;;1.70;;
54406;SDS011;40313;50.308;30.374;2023-03-17T09:23:13;1.87;;;1.77;;
54406;SDS011;40313;50.308;30.374;2023-03-17T09:25:40;2.53;;;2.33;;
54406;SDS011;40313;50.308;30.374;2023-03-17T09:28:07;1.77;;;1.67;;
54406;SDS011;40313;50.308;30.374;2023-03-17T09:30:38;1.40;;;1.30;;
54406;SDS011;40313;50.308;30.374;2023-03-17T09:33:06;3.50;;;1.97;;
54406;SDS011;40313;50.308;30.374;2023-03-17T09:35:33;1.92;;;1.83;;
54406;SDS011;40313;50.308;30.374;2023-03-17T09:37:59;2.30;;;2.10;;
54406;SDS011;40313;50.308;30.374;2023-03-17T09:40:29;18.85;;;2.15;;
54406;SDS011;40313;50.308;30.374;2023-03-17T09:42:59;3.07;;;1.73;;
54406;SDS011;40313;50.308;30.374;2023-03-17T09:45:38;1.30;;;1.20;;
54406;SDS011;40313;50.308;30.374;2023-03-17T09:48:10;1.65;;;1.55;;
54406;SDS011;40313;50.308;30.374;2023-03-17T09:50:54;7.90;;;2.78;;
54406;SDS011;40313;50.308;30.374;2023-03-17T09:53:24;8.70;;;2.75;;
54406;SDS011;40313;50.308;30.374;2023-03-17T09:58:27;1.53;;;1.43;;
54406;SDS011;40313;50.308;30.374;2023-03-17T10:00:57;5.10;;;3.60;;
54406;SDS011;40313;50.308;30.374;2023-03-17T10:03:25;3.10;;;2.70;;
54406;SDS011;40313;50.308;30.374;2023-03-17T10:05:52;2.27;;;2.07;;
54406;SDS011;40313;50.308;30.374;2023-03-17T10:08:24;2.93;;;2.83;;
54406;SDS011;40313;50.308;30.374;2023-03-17T10:10:55;1.73;;;1.30;;
54406;SDS011;40313;50.308;30.374;2023-03-17T10:13:27;3.17;;;2.90;;
54406;SDS011;40313;50.308;30.374;2023-03-17T10:16:10;3.70;;;3.40;;
54406;SDS011;40313;50.308;30.374;2023-03-17T10:18:40;2.07;;;1.97;;
54406;SDS011;40313;50.308;30.374;2023-03-17T10:21:12;1.63;;;1.48;;
54406;SDS011;40313;50.308;30.374;2023-03-17T10:23:43;1.50;;;1.40;;
54406;SDS011;40313;50.308;30.374;2023-03-17T10:26:16;2.45;;;2.25;;
54406;SDS011;40313;50.308;30.374;2023-03-17T10:28:51;2.97;;;2.40;;
54406;SDS011;40313;50.308;30.374;2023-03-17T10:31:25;3.20;;;2.33;;
54406;SDS011;40313;50.308;30.374;2023-03-17T10:33:53;4.00;;;3.53;;
54406;SDS011;40313;50.308;30.374;2023-03-17T10:36:31;7.33;;;2.77;;
54406;SDS011;40313;50.308;30.374;2023-03-17T10:39:01;2.85;;;2.65;;
54406;SDS011;40313;50.308;30.374;2023-03-17T10:41:30;3.70;;;2.60;;
54406;SDS011;40313;50.308;30.374;2023-03-17T10:43:57;3.53;;;2.67;;
54406;SDS011;40313;50.308;30.374;2023-03-17T10:46:26;2.20;;;1.42;;
54406;SDS011;40313;50.308;30.374;2023-03-17T10:48:55;1.97;;;1.87;;
54406;SDS011;40313;50.308;30.374;2023-03-17T10:51:28;3.37;;;2.27;;
54406;SDS011;40313;50.308;30.374;2023-03-17T10:53:58;2.35;;;2.15;;
54406;SDS011;40313;50.308;30.374;2023-03-17T10:56:26;2.23;;;2.03;;
54406;SDS011;40313;50.308;30.374;2023-03-17T10:58:55;10.93;;;1.53;;
54406;SDS011;40313;50.308;30.374;2023-03-17T11:01:26;4.77;;;2.33;;
54406;SDS011;40313;50.308;30.374;2023-03-17T11:04:00;2.05;;;1.80;;
54406;SDS011;40313;50.308;30.374;2023-03-17T11:06:31;3.73;;;2.60;;
54406;SDS011;40313;50.308;30.374;2023-03-17T11:09:04;1.73;;;1.63;;
54406;SDS011;40313;50.308;30.374;2023-03-17T11:11:33;2.17;;;2.03;;
54406;SDS011;40313;50.308;30.374;2023-03-17T11:14:09;4.00;;;3.28;;
54406;SDS011;40313;50.308;30.374;2023-03-17T11:16:43;2.40;;;2.20;;
54406;SDS011;40313;50.308;30.374;2023-03-17T11:19:17;8.10;;;2.00;;
54406;SDS011;40313;50.308;30.374;2023-03-17T11:21:46;2.27;;;2.07;;
54406;SDS011;40313;50.308;30.374;2023-03-17T11:24:20;5.00;;;2.20;;
54406;SDS011;40313;50.308;30.374;2023-03-17T11:26:55;1.10;;;0.90;;
54406;SDS011;40313;50.308;30.374;2023-03-17T11:29:30;7.90;;;2.75;;
54406;SDS011;40313;50.308;30.374;2023-03-17T11:32:21;2.63;;;2.03;;
54406;SDS011;40313;50.308;30.374;2023-03-17T11:34:57;0.93;;;0.90;;
54406;SDS011;40313;50.308;30.374;2023-03-17T11:37:47;1.97;;;1.87;;
54406;SDS011;40313;50.308;30.374;2023-03-17T11:40:27;2.35;;;2.15;;
54406;SDS011;40313;50.308;30.374;2023-03-17T11:43:00;1.60;;;1.23;;
54406;SDS011;40313;50.308;30.374;2023-03-17T11:45:41;1.75;;;1.65;;
54406;SDS011;40313;50.308;30.374;2023-03-17T11:48:18;8.17;;;1.83;;
54406;SDS011;40313;50.308;30.374;2023-03-17T11:50:54;4.90;;;3.40;;
54406;SDS011;40313;50.308;30.374;2023-03-17T11:53:42;3.80;;;3.05;;
54406;SDS011;40313;50.308;30.374;2023-03-17T11:56:39;2.00;;;1.60;;
54406;SDS011;40313;50.308;30.374;2023-03-17T11:59:12;2.63;;;1.40;;
54406;SDS011;40313;50.308;30.374;2023-03-17T12:01:50;0.60;;;0.60;;
54406;SDS011;40313;50.308;30.374;2023-03-17T12:04:25;1.85;;;1.75;;
54406;SDS011;40313;50.308;30.374;2023-03-17T12:06:58;1.67;;;1.50;;
54406;SDS011;40313;50.308;30.374;2023-03-17T12:09:33;2.08;;;1.92;;
54406;SDS011;40313;50.308;30.374;2023-03-17T12:12:05;6.80;;;2.50;;
54406;SDS011;40313;50.308;30.374;2023-03-17T12:14:35;1.25;;;1.15;;
54406;SDS011;40313;50.308;30.374;2023-03-17T12:17:05;1.23;;;1.13;;
54406;SDS011;40313;50.308;30.374;2023-03-17T12:19:41;2.55;;;2.35;;
54406;SDS011;40313;50.308;30.374;2023-03-17T12:22:12;1.50;;;1.27;;
54406;SDS011;40313;50.308;30.374;2023-03-17T12:24:46;3.57;;;1.33;;
54406;SDS011;40313;50.308;30.374;2023-03-17T12:27:20;1.67;;;1.20;;
54406;SDS011;40313;50.308;30.374;2023-03-17T12:29:50;2.90;;;2.50;;
54406;SDS011;40313;50.308;30.374;2023-03-17T12:32:21;1.27;;;1.17;;
54406;SDS011;40313;50.308;30.374;2023-03-17T12:34:52;1.17;;;0.93;;
54406;SDS011;40313;50.308;30.374;2023-03-17T12:37:21;1.10;;;0.83;;
54406;SDS011;40313;50.308;30.374;2023-03-17T12:39:51;1.50;;;1.40;;
54406;SDS011;40313;50.308;30.374;2023-03-17T12:42:32;2.00;;;1.80;;
54406;SDS011;40313;50.308;30.374;2023-03-17T12:48:04;11.57;;;2.95;;
54406;SDS011;40313;50.308;30.374;2023-03-17T12:50:47;4.25;;;0.95;;
54406;SDS011;40313;50.308;30.374;2023-03-17T12:53:31;5.47;;;2.07;;
54406;SDS011;40313;50.308;30.374;2023-03-17T12:56:00;1.55;;;1.45;;
54406;SDS011;40313;50.308;30.374;2023-03-17T12:58:35;8.77;;;1.97;;
54406;SDS011;40313;50.308;30.374;2023-03-17T13:01:10;1.07;;;1.03;;
54406;SDS011;40313;50.308;30.374;2023-03-17T13:03:54;10.60;;;2.90;;
54406;SDS011;40313;50.308;30.374;2023-03-17T13:06:24;3.53;;;1.10;;
54406;SDS011;40313;50.308;30.374;2023-03-17T13:08:54;2.67;;;1.93;;
54406;SDS011;40313;50.308;30.374;2023-03-17T13:11:27;3.03;;;2.83;;
54406;SDS011;40313;50.308;30.374;2023-03-17T13:14:15;4.03;;;2.07;;
54406;SDS011;40313;50.308;30.374;2023-03-17T13:16:51;1.13;;;1.02;;
54406;SDS011;40313;50.308;30.374;2023-03-17T13:19:30;1.63;;;1.37;;
54406;SDS011;40313;50.308;30.374;2023-03-17T13:25:10;3.65;;;2.30;;
54406;SDS011;40313;50.308;30.374;2023-03-17T13:27:40;3.67;;;1.90;;
54406;SDS011;40313;50.308;30.374;2023-03-17T13:33:18;1.40;;;1.30;;
54406;SDS011;40313;50.308;30.374;2023-03-17T13:36:00;5.33;;;3.00;;
54406;SDS011;40313;50.308;30.374;2023-03-17T13:41:55;5.10;;;1.80;;
54406;SDS011;40313;50.308;30.374;2023-03-17T13:44:30;1.70;;;1.60;;
54406;SDS011;40313;50.308;30.374;2023-03-17T13:47:14;2.20;;;2.00;;
54406;SDS011;40313;50.308;30.374;2023-03-17T13:49:51;8.43;;;1.67;;
54406;SDS011;40313;50.308;30.374;2023-03-17T13:52:22;2.95;;;2.40;;
54406;SDS011;40313;50.308;30.374;2023-03-17T16:22:10;30.50;;;16.80;;
54406;SDS011;40313;50.308;30.374;2023-03-17T16:25:00;29.50;;;16.00;;
54406;SDS011;40313;50.308;30.374;2023-03-17T16:29:55;25.00;;;17.45;;
54406;SDS011;40313;50.308;30.374;2023-03-17T16:39:41;23.03;;;10.90;;
54406;SDS011;40313;50.308;30.374;2023-03-17T16:42:10;44.10;;;16.80;;
54406;SDS011;40313;50.308;30.374;2023-03-17T16:44:46;48.80;;;23.80;;
54406;SDS011;40313;50.308;30.374;2023-03-17T16:47:13;57.87;;;26.27;;
54406;SDS011;40313;50.308;30.374;2023-03-17T16:49:39;65.25;;;30.33;;
54406;SDS011;40313;50.308;30.374;2023-03-17T16:54:33;25.50;;;9.20;;
54406;SDS011;40313;50.308;30.374;2023-03-17T16:56:59;27.57;;;12.63;;
54406;SDS011;40313;50.308;30.374;2023-03-17T16:59:26;14.00;;;7.00;;
54406;SDS011;40313;50.308;30.374;2023-03-17T17:01:56;38.05;;;15.85;;
54406;SDS011;40313;50.308;30.374;2023-03-17T17:09:16;24.55;;;11.70;;
54406;SDS011;40313;50.308;30.374;2023-03-17T17:11:43;49.00;;;17.80;;
54406;SDS011;40313;50.308;30.374;2023-03-17T17:19:08;33.90;;;16.40;;
54406;SDS011;40313;50.308;30.374;2023-03-17T18:30:18;54.60;;;24.80;;
54406;SDS011;40313;50.308;30.374;2023-03-17T18:32:47;53.80;;;24.00;;
